Burlington, NJ

4:14 PM EDT on March 26, 2015 (GMT -0400)
South Jersey Regional | Change Station
CLOSE
Current Station
Airport
Location: Mount Holly,
Elevation: 52 ft
Nearby Weather Stations

Elev 52 ft 39.94 °N, 74.84 °W | Updated 13 minutes ago

Overcast
Overcast
63 °F
Feels Like 63 °F
N
9
Wind Variable Wind from South
Gusts 24 mph

Today
High -- | Low -- °F
--% Chance of Precip.
Yesterday
High -- | Low -- °F
Precip. -- in
6:53 AM 7:17 PM
Waxing Crescent, 45% visible
Pressure 29.68 in
Visibility 3.0 miles
Clouds Scattered Clouds 1300 ft
Mostly Cloudy 1900 ft
Overcast 6000 ft
Dew Point 60 °F
Humidity 90%
Rainfall 0.10 in
Snow Depth Not available.
UV 1 out of 12
Pollen 5.40 out of 12
Air Quality Not available.
Flu Activity Not available.
SPECI KVAY 262001Z AUTO 18008G21KT 3SM -RA BR SCT013 BKN019 OVC060 17/16 A2968 RMK AO2 P0000 T01720156

More Conditions Fewer Conditions

Pressure 29.68 in
Visibility 3.0 miles
Clouds Scattered Clouds 1300 ft
Mostly Cloudy 1900 ft
Overcast 6000 ft
Dew Point 60 °F
Humidity 90%
Rainfall 0.10 in
Snow Depth Not available.
UV 1 out of 12
Pollen 5.40 out of 12
Air Quality Not available.
Flu Activity Not available.
SPECI KVAY 262001Z AUTO 18008G21KT 3SM -RA BR SCT013 BKN019 OVC060 17/16 A2968 RMK AO2 P0000 T01720156

More Conditions Fewer Conditions

Nowcast | as of 3:00 PM EDT on March 26, 2015

Showers will continue to move across the area through the late afternoon. A period of moderate to heavy rainfall is possible with some showers. Rainfall amounts of around a tenth of an inch in heavier showers is possible. An occasional lightning strike or rumble of thunder also cannot be ruled out. Outside of showers, patchy drizzle or fog will also occur. South to southwest winds 15 to 20 mph with gusts of 25 to 30 mph will continue

×

10-Day Weather Forecast

Almanac

Astronomy

Mar. 26, 2015 Rise Set
Actual Time
Civil Twilight
Nautical Twilight
Astronomical Twilight
Moon
Length of Visible Light
Length of Day
Tomorrow will be .
, % of the Moon is Illuminated

Today's Extremes

State Highs State Lows

Community

WunderPhotos

Upload Photos

1,808,619 photos uploaded!

WunderBlogs® & News

Nearby

Air Quality

  Air Quality AQ Index Pollutant
Not available.

Snow Depth

Station Depth Elevation

Earthquake Activity

City Distance Mag. Time & Date
Minimum magnitude displayed is 2.5.

Coastal Water Temperatures

Place Temperature

Stations

Nearby Weather Stations

Station Location Temp. Windchill Dew Point Humidity Wind Precip. Elev Updated Type